Time;durP1;ratioP1;P1;durP2;ratioP2;P2;SDS_P1;SDS_P2;PMS_P1;PMS_P2;Temp;Humidity;BMP_temperature;BMP_pressure;BME280_temperature;BME280_humidity;BME280_pressure;Samples;Min_cycle;Max_cycle;Signal;HPM_P1;HPM_P2
2022/01/20 00:01:59;;;;;;;37.40;17.83;;;-1.60;99.90;;;;;;5036718;28;20117;-94
2022/01/20 00:04:40;;;;;;;42.13;18.25;;;-1.60;99.90;;;;;;5036528;28;20022;-94
2022/01/20 00:07:27;;;;;;;47.30;23.35;;;-1.60;99.90;;;;;;5036194;28;20077;-94
2022/01/20 00:26:55;;;;;;;41.25;18.08;;;-1.50;99.90;;;;;;5037617;28;20028;-95
2022/01/20 00:29:27;;;;;;;36.53;18.85;;;-1.50;99.90;;;;;;5036013;28;20028;-94
2022/01/20 00:32:06;;;;;;;38.83;18.25;;;-1.40;99.90;;;;;;5035168;28;20037;-95
2022/01/20 00:37:18;;;;;;;36.45;18.33;;;-1.40;99.90;;;;;;5037276;28;20048;-95
2022/01/20 00:39:44;;;;;;;35.90;16.17;;;-1.40;99.90;;;;;;5035721;28;20025;-95
2022/01/20 00:42:10;;;;;;;39.72;19.25;;;-1.40;99.90;;;;;;5035670;28;20365;-95
2022/01/20 00:44:36;;;;;;;39.08;17.35;;;-1.40;99.90;;;;;;5035907;28;20078;-94
2022/01/20 00:47:03;;;;;;;37.55;18.80;;;-1.40;99.90;;;;;;5035971;28;20612;-95
2022/01/20 00:49:28;;;;;;;39.35;18.55;;;-1.40;99.90;;;;;;5035553;28;20120;-94
2022/01/20 00:51:54;;;;;;;37.35;18.70;;;-1.40;99.90;;;;;;5035542;28;20160;-94
2022/01/20 00:54:20;;;;;;;38.28;16.83;;;-1.40;99.90;;;;;;5035400;28;20395;-95
2022/01/20 00:56:46;;;;;;;37.60;18.80;;;-1.40;99.90;;;;;;5035669;28;20025;-94
2022/01/20 00:59:12;;;;;;;58.40;24.45;;;-1.30;99.90;;;;;;5035186;28;20412;-94
2022/01/20 01:01:38;;;;;;;57.75;26.65;;;-1.30;99.90;;;;;;5035314;28;20025;-94
2022/01/20 01:04:04;;;;;;;44.97;21.75;;;-1.40;99.90;;;;;;5035487;28;20116;-94
2022/01/20 01:06:55;;;;;;;40.83;19.35;;;-1.40;99.90;;;;;;5035592;28;20021;-94
2022/01/20 01:09:21;;;;;;;42.75;20.90;;;-1.40;99.90;;;;;;5035155;28;20120;-94
2022/01/20 01:11:48;;;;;;;38.20;20.17;;;-1.40;99.90;;;;;;5039101;28;20113;-94
2022/01/20 01:14:16;;;;;;;41.40;19.85;;;-1.40;99.90;;;;;;5051991;28;20493;-92
2022/01/20 01:22:13;;;;;;;35.88;16.77;;;-1.30;99.90;;;;;;5036610;28;20436;-94
2022/01/20 01:24:44;;;;;;;34.95;16.92;;;-1.30;99.90;;;;;;5035095;28;20045;-94
2022/01/20 01:27:12;;;;;;;39.40;18.33;;;-1.30;99.90;;;;;;5037091;28;20087;-94
2022/01/20 01:32:32;;;;;;;31.65;15.93;;;-1.30;99.90;;;;;;5036344;28;20029;-93
2022/01/20 01:35:00;;;;;;;37.95;16.67;;;-1.30;99.90;;;;;;5035468;28;20021;-93
2022/01/20 01:39:58;;;;;;;32.53;15.18;;;-1.30;99.90;;;;;;5035601;28;20021;-93
2022/01/20 01:42:31;;;;;;;32.55;13.60;;;-1.20;99.90;;;;;;5034611;28;20029;-93
2022/01/20 01:45:06;;;;;;;27.58;14.27;;;-1.20;99.90;;;;;;5034409;28;20028;-94
2022/01/20 01:47:32;;;;;;;28.83;13.70;;;-1.20;99.90;;;;;;5034733;28;20033;-94
2022/01/20 01:49:58;;;;;;;30.55;14.20;;;-1.20;99.90;;;;;;5034508;28;20022;-95
2022/01/20 01:52:24;;;;;;;41.75;12.98;;;-1.10;99.90;;;;;;5034671;28;20026;-93
2022/01/20 01:54:49;;;;;;;29.88;13.15;;;-1.20;99.90;;;;;;5034277;28;20112;-94
2022/01/20 01:57:15;;;;;;;34.80;14.88;;;-1.20;99.90;;;;;;5052596;28;20467;-94
2022/01/20 01:59:41;;;;;;;28.75;13.50;;;-1.20;99.90;;;;;;5053843;28;20049;-94
2022/01/20 02:02:07;;;;;;;29.20;13.43;;;-1.10;99.90;;;;;;5054116;28;20056;-93
2022/01/20 02:04:33;;;;;;;30.52;14.32;;;-1.10;99.90;;;;;;5053952;28;20047;-94
2022/01/20 02:20:40;;;;;;;31.70;15.35;;;-1.20;99.90;;;;;;5035174;28;20132;-94
2022/01/20 02:23:06;;;;;;;33.78;15.65;;;-1.20;99.90;;;;;;5033742;28;20037;-93
2022/01/20 02:25:35;;;;;;;30.13;14.80;;;-1.10;99.90;;;;;;5033894;28;20053;-94
2022/01/20 02:28:06;;;;;;;29.63;14.63;;;-1.10;99.90;;;;;;5034121;28;20025;-93
2022/01/20 02:30:34;;;;;;;28.40;13.85;;;-1.10;99.90;;;;;;5034142;28;20071;-93
2022/01/20 02:33:12;;;;;;;29.45;12.95;;;-1.10;99.90;;;;;;5033779;28;20124;-93
2022/01/20 02:35:44;;;;;;;28.88;14.13;;;-1.10;99.90;;;;;;5033770;28;20033;-94
2022/01/20 02:39:01;;;;;;;23.45;11.82;;;-1.10;99.90;;;;;;5034480;28;20467;-93
2022/01/20 02:46:25;;;;;;;22.60;10.73;;;-1.10;99.90;;;;;;5054879;28;20055;-93
2022/01/20 02:48:51;;;;;;;26.48;12.02;;;-1.10;99.90;;;;;;5054272;28;20418;-95
2022/01/20 02:51:17;;;;;;;21.33;10.82;;;-1.10;99.90;;;;;;5053338;28;20021;-93
2022/01/20 02:53:43;;;;;;;18.45;10.30;;;-1.20;99.90;;;;;;5053258;28;20081;-94
2022/01/20 02:56:08;;;;;;;24.35;11.80;;;-1.20;99.90;;;;;;5053177;28;20159;-93
2022/01/20 02:58:34;;;;;;;19.05;10.25;;;-1.10;99.90;;;;;;5052948;28;20057;-93
2022/01/20 03:01:01;;;;;;;26.52;14.05;;;-1.10;99.90;;;;;;5059368;28;20031;-93
2022/01/20 03:03:26;;;;;;;24.27;12.15;;;-1.20;99.90;;;;;;5036808;28;20032;-93
2022/01/20 03:05:53;;;;;;;24.77;11.60;;;-1.20;99.90;;;;;;5034383;28;20375;-93
2022/01/20 03:08:19;;;;;;;26.98;11.98;;;-1.10;99.90;;;;;;5033524;28;20022;-93
2022/01/20 03:10:45;;;;;;;20.15;10.10;;;-1.20;99.90;;;;;;5033399;28;20025;-94
2022/01/20 03:13:10;;;;;;;22.98;11.18;;;-1.20;99.90;;;;;;5051340;28;20116;-93
2022/01/20 03:15:36;;;;;;;24.20;12.18;;;-1.20;99.90;;;;;;5040611;28;20104;-94
2022/01/20 03:18:06;;;;;;;22.13;11.10;;;-1.10;99.90;;;;;;5044564;28;20025;-94
2022/01/20 03:20:32;;;;;;;20.48;11.43;;;-1.10;99.90;;;;;;5052979;28;20058;-93
2022/01/20 03:22:59;;;;;;;21.48;11.30;;;-1.10;99.90;;;;;;5054039;28;20031;-94
2022/01/20 03:25:25;;;;;;;20.25;10.55;;;-1.10;99.90;;;;;;5053102;28;20474;-93
2022/01/20 03:27:51;;;;;;;21.00;10.93;;;-1.10;99.90;;;;;;5053771;28;20029;-94
2022/01/20 03:30:16;;;;;;;22.20;11.50;;;-1.10;99.90;;;;;;5053696;28;20025;-94
2022/01/20 03:32:42;;;;;;;22.15;11.15;;;-1.10;99.90;;;;;;5071095;28;20024;-93
2022/01/20 03:35:08;;;;;;;22.73;11.38;;;-1.10;99.90;;;;;;5072954;28;20048;-93
2022/01/20 03:37:35;;;;;;;24.55;11.88;;;-1.10;99.90;;;;;;5072997;28;20451;-94
2022/01/20 03:40:02;;;;;;;20.52;10.35;;;-1.20;99.90;;;;;;5044816;28;20083;-93
2022/01/20 03:42:27;;;;;;;33.28;17.00;;;-1.10;99.90;;;;;;5032825;28;20056;-94
2022/01/20 03:44:53;;;;;;;25.08;11.73;;;-1.20;99.90;;;;;;5032985;28;20387;-93
2022/01/20 03:47:23;;;;;;;25.48;11.63;;;-1.20;99.90;;;;;;5032893;28;20030;-95
2022/01/20 03:49:55;;;;;;;21.27;11.13;;;-1.10;99.90;;;;;;5047491;28;20056;-94
2022/01/20 03:52:21;;;;;;;24.20;11.93;;;-1.20;99.90;;;;;;5052868;28;20029;-93
2022/01/20 03:54:47;;;;;;;22.75;12.38;;;-1.20;99.90;;;;;;5052890;28;20052;-94
2022/01/20 03:57:12;;;;;;;27.17;11.82;;;-1.20;99.90;;;;;;5052505;28;20040;-93
2022/01/20 03:59:38;;;;;;;24.90;12.82;;;-1.20;99.90;;;;;;5052371;28;20051;-94
2022/01/20 04:02:05;;;;;;;26.33;12.30;;;-1.20;99.90;;;;;;5052489;28;20044;-94
2022/01/20 04:04:31;;;;;;;26.30;12.90;;;-1.30;99.90;;;;;;5052730;28;20021;-93
2022/01/20 04:06:57;;;;;;;27.50;12.57;;;-1.20;99.90;;;;;;5054250;28;20025;-94
2022/01/20 04:09:23;;;;;;;27.27;12.98;;;-1.20;99.90;;;;;;5057581;28;20037;-94
2022/01/20 04:11:49;;;;;;;27.65;13.18;;;-1.20;99.90;;;;;;5056172;28;20378;-91
2022/01/20 04:14:15;;;;;;;33.10;15.75;;;-1.20;99.90;;;;;;5056367;28;20482;-94
2022/01/20 04:19:21;;;;;;;30.08;14.80;;;-1.20;99.90;;;;;;5057698;28;20028;-93
2022/01/20 04:21:47;;;;;;;27.27;13.48;;;-1.20;99.90;;;;;;5056011;28;20036;-94
2022/01/20 04:24:13;;;;;;;25.58;13.55;;;-1.20;99.90;;;;;;5056305;28;20025;-94
2022/01/20 04:26:41;;;;;;;29.58;13.68;;;-1.30;99.90;;;;;;5055743;28;20025;-93
2022/01/20 04:29:08;;;;;;;27.40;13.82;;;-1.30;99.90;;;;;;5072615;28;20035;-93
2022/01/20 04:31:35;;;;;;;30.40;14.20;;;-1.30;99.90;;;;;;5075983;28;20029;-95
2022/01/20 04:34:01;;;;;;;23.33;12.38;;;-1.30;99.90;;;;;;5046196;28;20487;-94
2022/01/20 04:36:31;;;;;;;24.10;12.05;;;-1.30;99.90;;;;;;5035664;28;20391;-94
2022/01/20 04:38:59;;;;;;;27.00;13.48;;;-1.30;99.90;;;;;;5035757;28;20083;-94
2022/01/20 04:41:28;;;;;;;24.98;12.82;;;-1.30;99.90;;;;;;5035605;28;20032;-94
2022/01/20 04:43:54;;;;;;;27.52;13.02;;;-1.30;99.90;;;;;;5036230;28;20380;-94
2022/01/20 04:46:32;;;;;;;22.65;11.82;;;-1.40;99.90;;;;;;5035917;28;20032;-94
2022/01/20 04:59:29;;;;;;;28.50;12.60;;;-1.40;99.90;;;;;;5069868;28;20049;-94
2022/01/20 05:01:55;;;;;;;24.55;12.45;;;-1.40;99.90;;;;;;5055263;28;20024;-94
2022/01/20 05:04:23;;;;;;;26.33;13.23;;;-1.40;99.90;;;;;;5045049;28;20022;-93
2022/01/20 05:06:50;;;;;;;25.25;13.05;;;-1.40;99.90;;;;;;5036430;28;20021;-94
2022/01/20 05:09:20;;;;;;;30.52;13.30;;;-1.50;99.90;;;;;;5035182;28;20025;-94
2022/01/20 05:11:51;;;;;;;24.55;12.77;;;-1.40;99.90;;;;;;5035060;28;20029;-96
2022/01/20 05:14:16;;;;;;;29.67;14.10;;;-1.50;99.90;;;;;;5035334;28;20033;-95
2022/01/20 05:16:42;;;;;;;30.45;14.32;;;-1.40;99.90;;;;;;5049173;28;20123;-94
2022/01/20 05:19:08;;;;;;;41.30;19.27;;;-1.50;99.90;;;;;;5055803;28;20025;-94
2022/01/20 05:21:34;;;;;;;41.45;17.15;;;-1.50;99.90;;;;;;5055213;28;20078;-94
2022/01/20 05:23:59;;;;;;;52.40;20.27;;;-1.50;99.90;;;;;;5038575;28;20490;-94
2022/01/20 05:26:25;;;;;;;45.10;18.75;;;-1.50;99.90;;;;;;5035762;28;20116;-92
2022/01/20 15:31:10;;;;;;;37.35;17.23;;;-2.10;99.90;;;;;;5093079;27;20862;-95
2022/01/20 15:33:36;;;;;;;45.50;20.20;;;-2.10;99.90;;;;;;5091896;28;20039;-94
2022/01/20 15:36:02;;;;;;;45.80;20.77;;;-2.10;99.90;;;;;;5092283;28;20020;-96
2022/01/20 15:38:28;;;;;;;39.70;19.45;;;-2.00;99.90;;;;;;5091094;28;20074;-96
2022/01/20 15:40:54;;;;;;;43.50;18.13;;;-2.00;99.90;;;;;;5091039;28;20028;-95
2022/01/20 15:43:20;;;;;;;76.38;28.15;;;-2.00;99.90;;;;;;5091862;28;20021;-94
2022/01/20 15:45:46;;;;;;;43.60;19.88;;;-2.00;99.90;;;;;;5092921;28;20097;-95
2022/01/20 15:48:11;;;;;;;40.63;19.00;;;-1.90;99.90;;;;;;5090980;28;20091;-95
2022/01/20 15:50:37;;;;;;;43.47;19.67;;;-1.90;99.90;;;;;;5090451;28;20116;-96
2022/01/20 15:53:05;;;;;;;37.80;18.00;;;-1.90;99.90;;;;;;5090609;28;20474;-95
2022/01/20 15:55:36;;;;;;;38.33;16.25;;;-1.90;99.90;;;;;;5090590;28;20478;-96
2022/01/20 15:58:03;;;;;;;39.05;15.77;;;-1.90;99.90;;;;;;5090540;28;20035;-95
2022/01/20 16:00:32;;;;;;;32.70;14.80;;;-1.80;99.90;;;;;;5090762;28;20032;-96
2022/01/20 16:02:58;;;;;;;31.58;15.07;;;-1.80;99.90;;;;;;5090606;28;20024;-96
2022/01/20 16:05:24;;;;;;;30.88;15.10;;;-1.80;99.90;;;;;;5090141;28;20443;-95
2022/01/20 16:07:50;;;;;;;35.10;16.52;;;-1.80;99.90;;;;;;5090359;28;20060;-96
2022/01/20 16:10:16;;;;;;;31.27;15.35;;;-1.80;99.90;;;;;;5091694;28;20074;-96
2022/01/20 16:12:42;;;;;;;33.88;15.57;;;-1.80;99.90;;;;;;5090312;28;20052;-95
2022/01/20 16:15:09;;;;;;;42.03;18.63;;;-1.80;99.90;;;;;;5090499;28;20031;-96
2022/01/20 16:17:35;;;;;;;38.85;17.77;;;-1.80;99.90;;;;;;5090178;28;20442;-96
2022/01/20 16:20:01;;;;;;;37.90;17.58;;;-1.70;99.90;;;;;;5090000;28;20024;-96
2022/01/20 16:22:27;;;;;;;33.45;15.65;;;-1.70;99.90;;;;;;5089966;28;20033;-95
2022/01/20 16:24:53;;;;;;;31.83;16.33;;;-1.70;99.90;;;;;;5090041;28;20021;-96
2022/01/20 16:27:19;;;;;;;31.02;16.10;;;-1.70;99.90;;;;;;5089929;28;20077;-96
2022/01/20 16:29:45;;;;;;;33.00;16.23;;;-1.70;99.90;;;;;;5089629;28;20131;-96
2022/01/20 16:32:11;;;;;;;43.67;20.27;;;-1.70;99.90;;;;;;5089656;28;20023;-96
2022/01/20 16:34:37;;;;;;;39.22;18.13;;;-1.70;99.90;;;;;;5089943;28;20024;-96
2022/01/20 16:37:04;;;;;;;40.28;18.23;;;-1.60;99.90;;;;;;5090571;28;20111;-96
2022/01/20 16:39:31;;;;;;;44.53;19.42;;;-1.70;99.90;;;;;;5090230;28;20029;-96
2022/01/20 16:41:57;;;;;;;45.67;17.50;;;-1.70;99.90;;;;;;5080245;28;20028;-96
2022/01/20 16:44:23;;;;;;;36.45;16.27;;;-1.60;99.90;;;;;;5077553;28;20035;-96
2022/01/20 16:46:49;;;;;;;41.60;17.23;;;-1.60;99.90;;;;;;5076660;28;20025;-96
2022/01/20 16:49:15;;;;;;;39.95;16.10;;;-1.60;99.90;;;;;;5076731;28;20030;-96
2022/01/20 16:51:41;;;;;;;37.97;16.13;;;-1.60;99.90;;;;;;5077265;28;20028;-96
2022/01/20 16:54:07;;;;;;;28.85;13.75;;;-1.60;99.90;;;;;;5076145;28;20024;-96
2022/01/20 16:56:32;;;;;;;29.83;14.00;;;-1.60;99.90;;;;;;5076342;28;20074;-96
2022/01/20 16:58:58;;;;;;;29.95;14.18;;;-1.50;99.90;;;;;;5076450;28;20020;-96
2022/01/20 17:01:24;;;;;;;27.30;14.05;;;-1.50;99.90;;;;;;5076276;28;20110;-96
2022/01/20 17:03:50;;;;;;;32.95;15.00;;;-1.50;99.90;;;;;;5076218;28;20375;-96
2022/01/20 17:06:16;;;;;;;27.98;13.55;;;-1.50;99.90;;;;;;5076945;28;20404;-96
2022/01/20 17:08:42;;;;;;;30.85;13.73;;;-1.40;99.90;;;;;;5075460;28;20028;-95
2022/01/20 17:11:08;;;;;;;28.92;13.43;;;-1.40;99.90;;;;;;5075766;28;20059;-96
2022/01/20 17:13:33;;;;;;;28.27;13.32;;;-1.40;99.90;;;;;;5075631;28;20016;-96
2022/01/20 17:15:59;;;;;;;27.95;13.82;;;-1.30;99.90;;;;;;5076312;28;20020;-96
2022/01/20 17:18:25;;;;;;;27.10;13.40;;;-1.20;99.90;;;;;;5075648;28;20035;-96
2022/01/20 17:20:52;;;;;;;28.98;13.82;;;-1.20;99.90;;;;;;5075450;28;20025;-96
2022/01/20 17:23:18;;;;;;;36.50;18.60;;;-1.10;99.90;;;;;;5075254;28;20024;-96
2022/01/20 17:25:44;;;;;;;33.80;15.38;;;-1.10;99.90;;;;;;5075585;28;20074;-96
2022/01/20 17:28:10;;;;;;;35.15;17.80;;;-1.00;99.90;;;;;;5075842;28;20036;-96
2022/01/20 17:30:35;;;;;;;37.47;16.40;;;-1.00;99.90;;;;;;5075150;28;20054;-96
2022/01/20 17:33:01;;;;;;;31.17;15.18;;;-0.90;99.90;;;;;;5075195;28;20020;-96
2022/01/20 17:35:27;;;;;;;35.65;16.63;;;-0.90;99.90;;;;;;5075198;28;20029;-96
2022/01/20 17:37:53;;;;;;;41.25;16.85;;;-0.80;99.90;;;;;;5075842;28;20027;-96
2022/01/20 17:40:19;;;;;;;41.50;18.73;;;-0.80;99.90;;;;;;5074992;28;20119;-96
2022/01/20 17:42:45;;;;;;;44.33;18.58;;;-0.70;99.90;;;;;;5074931;28;20101;-96
2022/01/20 17:45:12;;;;;;;35.60;15.27;;;-0.70;99.90;;;;;;5074974;28;20024;-96
2022/01/20 17:47:38;;;;;;;36.13;16.02;;;-0.70;99.90;;;;;;5074973;28;20463;-96
2022/01/20 17:50:05;;;;;;;33.00;15.88;;;-0.70;99.90;;;;;;5074531;28;20032;-96
2022/01/20 17:52:31;;;;;;;28.08;14.50;;;-0.60;99.90;;;;;;5074575;28;20024;-94
2022/01/20 17:54:57;;;;;;;29.33;13.60;;;-0.60;99.90;;;;;;5075440;28;20028;-96
2022/01/20 17:57:22;;;;;;;29.83;14.40;;;-0.60;99.90;;;;;;5076392;28;20029;-96
2022/01/20 17:59:48;;;;;;;29.77;15.15;;;-0.50;99.90;;;;;;5074931;28;20422;-96
2022/01/20 18:02:14;;;;;;;29.13;13.75;;;-0.50;99.90;;;;;;5074679;28;20483;-96
2022/01/20 18:04:40;;;;;;;31.08;15.48;;;-0.50;99.90;;;;;;5074399;28;20032;-96
2022/01/20 18:07:05;;;;;;;26.67;13.77;;;-0.50;99.90;;;;;;5074524;28;20458;-96
2022/01/20 18:09:33;;;;;;;27.25;14.10;;;-0.50;99.90;;;;;;5074209;28;20028;-96
2022/01/20 18:11:59;;;;;;;27.10;14.48;;;-0.50;99.90;;;;;;5074963;28;20024;-96
2022/01/20 18:14:25;;;;;;;29.95;17.30;;;-0.50;99.90;;;;;;5074262;28;20084;-96
2022/01/20 18:16:51;;;;;;;43.00;24.15;;;-0.50;99.90;;;;;;5077450;28;20073;-96
2022/01/20 18:19:18;;;;;;;52.88;27.17;;;-0.50;99.90;;;;;;5074077;28;20025;-95
2022/01/20 18:21:44;;;;;;;51.42;27.27;;;-0.50;99.90;;;;;;5075655;28;20032;-96
2022/01/20 18:24:10;;;;;;;58.53;29.90;;;-0.50;99.90;;;;;;5074601;28;20020;-96
2022/01/20 18:26:36;;;;;;;52.20;26.60;;;-0.50;99.90;;;;;;5077022;28;20474;-96
2022/01/20 18:29:03;;;;;;;40.15;21.95;;;-0.50;99.90;;;;;;5078603;28;20076;-96
2022/01/20 18:31:29;;;;;;;40.88;18.13;;;-0.60;99.90;;;;;;5074830;28;20028;-96
2022/01/20 18:33:55;;;;;;;40.80;22.00;;;-0.60;99.90;;;;;;5074031;28;20021;-96
2022/01/20 18:36:21;;;;;;;35.80;19.58;;;-0.50;99.90;;;;;;5074582;28;20059;-96
2022/01/20 18:38:47;;;;;;;38.13;20.48;;;-0.60;99.90;;;;;;5074243;28;20024;-95
2022/01/20 18:41:13;;;;;;;36.55;18.92;;;-0.50;99.90;;;;;;5074287;28;20530;-96
2022/01/20 18:43:38;;;;;;;44.03;23.15;;;-0.50;99.90;;;;;;5075856;28;20362;-96
2022/01/20 18:46:07;;;;;;;54.08;24.83;;;-0.50;99.90;;;;;;5073616;28;20421;-96
2022/01/20 18:48:33;;;;;;;59.45;29.33;;;-0.40;99.90;;;;;;5074653;28;20021;-96
2022/01/20 18:50:59;;;;;;;35.50;17.67;;;-0.50;99.90;;;;;;5073590;28;20031;-96
2022/01/20 18:53:25;;;;;;;35.88;18.77;;;-0.40;99.90;;;;;;5073697;28;20108;-96
2022/01/20 18:55:51;;;;;;;40.00;17.42;;;-0.40;99.90;;;;;;5073639;28;20513;-96
2022/01/20 18:58:17;;;;;;;39.58;17.38;;;-0.40;99.90;;;;;;5075125;28;20028;-96
2022/01/20 19:00:43;;;;;;;44.53;19.15;;;-0.40;99.90;;;;;;5073548;28;20434;-96
2022/01/20 19:03:09;;;;;;;33.53;17.30;;;-0.30;99.90;;;;;;5073508;28;20028;-96
2022/01/20 19:05:35;;;;;;;32.78;16.27;;;-0.40;99.90;;;;;;5073165;28;20028;-95
2022/01/20 19:08:01;;;;;;;35.47;17.60;;;-0.30;99.90;;;;;;5073328;28;20430;-96
2022/01/20 19:10:27;;;;;;;36.88;16.58;;;-0.30;99.90;;;;;;5074638;28;20478;-96
2022/01/20 19:12:53;;;;;;;32.85;15.57;;;-0.30;99.90;;;;;;5073520;28;20050;-95
2022/01/20 19:15:21;;;;;;;35.30;17.17;;;-0.30;99.90;;;;;;5073279;28;20020;-95
2022/01/20 19:17:47;;;;;;;32.15;16.05;;;-0.30;99.90;;;;;;5073374;28;20031;-96
2022/01/20 19:20:14;;;;;;;31.38;15.00;;;-0.30;99.90;;;;;;5073288;28;20054;-96
2022/01/20 19:22:40;;;;;;;31.52;16.23;;;-0.30;99.90;;;;;;5073412;28;20054;-95
2022/01/20 19:25:07;;;;;;;33.63;14.43;;;-0.30;99.90;;;;;;5073120;28;20532;-96
2022/01/20 19:27:33;;;;;;;30.95;16.08;;;-0.30;99.90;;;;;;5073216;28;20025;-96
2022/01/20 19:30:20;;;;;;;26.40;14.80;;;-0.30;99.90;;;;;;5082111;28;20048;-96
2022/01/20 19:32:47;;;;;;;29.55;14.60;;;-0.30;99.90;;;;;;5087823;28;20016;-96
2022/01/20 19:35:31;;;;;;;29.50;15.93;;;-0.30;99.90;;;;;;5216173;23;20052;-96
2022/01/20 19:37:59;;;;;;;32.95;16.67;;;-0.30;99.90;;;;;;5011951;28;20046;-96
2022/01/20 19:40:25;;;;;;;37.40;18.85;;;-0.30;99.90;;;;;;5023671;28;20037;-96
2022/01/20 19:42:52;;;;;;;36.78;17.38;;;-0.30;99.90;;;;;;5024848;28;20022;-96
2022/01/20 19:50:34;;;;;;;35.67;18.23;;;-0.30;99.90;;;;;;5372862;22;20542;-96
2022/01/20 19:53:03;;;;;;;40.17;19.27;;;-0.30;99.90;;;;;;5033592;28;20038;-96
2022/01/20 19:55:31;;;;;;;45.75;21.35;;;-0.30;99.90;;;;;;5301234;23;20013;-96
2022/01/20 19:58:20;;;;;;;43.38;20.40;;;-0.30;99.90;;;;;;5051153;28;20041;-96
2022/01/20 20:01:14;;;;;;;45.90;19.27;;;-0.40;99.90;;;;;;5049927;28;20018;-96
2022/01/20 20:03:54;;;;;;;43.55;19.90;;;-0.40;99.90;;;;;;5053791;28;20033;-96
2022/01/20 20:06:51;;;;;;;44.92;20.25;;;-0.40;99.90;;;;;;5052608;28;20024;-96
2022/01/20 20:09:47;;;;;;;44.88;20.63;;;-0.40;99.90;;;;;;5052841;28;20018;-96
2022/01/20 20:12:22;;;;;;;42.38;20.00;;;-0.40;99.90;;;;;;5037781;28;20052;-96
2022/01/20 20:14:50;;;;;;;46.25;20.83;;;-0.40;99.90;;;;;;5052356;28;20028;-96
2022/01/20 20:17:17;;;;;;;45.70;21.50;;;-0.40;99.90;;;;;;5038273;28;20026;-96
2022/01/20 20:19:44;;;;;;;63.28;25.13;;;-0.40;99.90;;;;;;5054375;28;20022;-96
2022/01/20 20:22:22;;;;;;;47.97;21.42;;;-0.40;99.90;;;;;;5051100;28;20510;-96
2022/01/20 20:24:59;;;;;;;38.15;17.95;;;-0.40;99.90;;;;;;5053721;28;20076;-96
2022/01/20 20:27:26;;;;;;;40.42;18.80;;;-0.40;99.90;;;;;;5049700;28;20033;-96
2022/01/20 20:29:55;;;;;;;48.17;21.50;;;-0.40;99.90;;;;;;5037999;28;20044;-96
2022/01/20 20:35:30;;;;;;;49.08;21.30;;;-0.30;99.90;;;;;;5039747;28;20033;-96
2022/01/20 20:37:59;;;;;;;46.33;20.23;;;-0.40;99.90;;;;;;5050278;28;20561;-96
2022/01/20 20:40:26;;;;;;;41.65;19.73;;;-0.30;99.90;;;;;;5047095;28;20033;-96
2022/01/20 20:42:52;;;;;;;47.10;21.60;;;-0.40;99.90;;;;;;5043668;28;20033;-96
2022/01/20 20:45:25;;;;;;;47.38;22.45;;;-0.40;99.90;;;;;;5048178;28;20041;-96
